createdAt,value
2023-02-26T00:00:52.940Z,0
2023-02-26T00:01:53.445Z,0
2023-02-26T00:02:52.976Z,0
2023-02-26T00:03:52.654Z,0
2023-02-26T00:04:52.948Z,0
2023-02-26T00:05:52.352Z,0
2023-02-26T00:06:54.982Z,0
2023-02-26T00:07:53.012Z,0
2023-02-26T00:08:52.071Z,0
2023-02-26T00:09:52.514Z,0
2023-02-26T00:10:52.456Z,0
2023-02-26T00:11:52.242Z,0
2023-02-26T00:12:52.461Z,0
2023-02-26T00:13:52.888Z,0
2023-02-26T00:14:52.251Z,0
2023-02-26T00:15:52.401Z,0
2023-02-26T00:16:52.320Z,0
2023-02-26T00:17:52.053Z,0
2023-02-26T00:18:52.606Z,0
2023-02-26T00:19:52.275Z,0
2023-02-26T00:20:52.606Z,0
2023-02-26T00:21:52.487Z,0
2023-02-26T00:22:52.465Z,0
2023-02-26T00:23:51.939Z,0
2023-02-26T00:24:51.904Z,0
2023-02-26T00:25:52.407Z,0
2023-02-26T00:26:52.147Z,0
2023-02-26T00:27:52.369Z,0
2023-02-26T00:28:52.345Z,0
2023-02-26T00:29:52.315Z,0
2023-02-26T00:30:51.948Z,0
2023-02-26T00:31:52.652Z,0
2023-02-26T00:32:52.052Z,0
2023-02-26T00:33:51.992Z,0
2023-02-26T00:34:51.940Z,0
2023-02-26T00:35:52.207Z,0
2023-02-26T00:36:52.267Z,0
2023-02-26T00:37:52.142Z,0
2023-02-26T00:38:51.606Z,0
2023-02-26T00:39:52.111Z,0
2023-02-26T00:40:52.101Z,0
2023-02-26T00:41:52.166Z,0
2023-02-26T00:42:51.805Z,0
2023-02-26T00:43:51.489Z,0
2023-02-26T00:44:51.780Z,0
2023-02-26T00:45:51.694Z,0
2023-02-26T00:46:51.947Z,0
2023-02-26T00:47:51.662Z,0
2023-02-26T00:48:51.671Z,0
2023-02-26T00:49:51.972Z,0
2023-02-26T00:50:51.590Z,0
2023-02-26T00:51:51.875Z,0
2023-02-26T00:52:51.974Z,0
2023-02-26T00:53:51.543Z,0
2023-02-26T00:54:51.783Z,0
2023-02-26T00:55:51.574Z,0
2023-02-26T00:56:51.764Z,0
2023-02-26T00:57:51.463Z,0
2023-02-26T00:58:51.427Z,0
2023-02-26T00:59:51.670Z,0
2023-02-26T01:00:51.142Z,0
2023-02-26T01:01:51.727Z,0
2023-02-26T01:02:51.348Z,0
2023-02-26T01:03:51.551Z,0
2023-02-26T01:04:51.562Z,0
2023-02-26T01:05:51.285Z,0
2023-02-26T01:06:51.517Z,0
2023-02-26T01:07:51.251Z,0
2023-02-26T01:08:51.574Z,0
2023-02-26T01:09:51.472Z,0
2023-02-26T01:10:51.180Z,0
2023-02-26T01:11:51.411Z,0
2023-02-26T01:12:51.407Z,0
2023-02-26T01:13:50.855Z,0
2023-02-26T01:14:51.119Z,0
2023-02-26T01:15:51.463Z,0
2023-02-26T01:16:50.793Z,0
2023-02-26T01:17:51.030Z,0
2023-02-26T01:18:51.014Z,0
2023-02-26T01:19:51.004Z,0
2023-02-26T01:20:51.231Z,0
2023-02-26T01:21:50.683Z,0
2023-02-26T01:22:50.912Z,0
2023-02-26T01:23:50.907Z,0
2023-02-26T01:24:51.417Z,0
2023-02-26T01:25:50.615Z,0
2023-02-26T01:26:51.131Z,0
2023-02-26T01:27:50.811Z,0
2023-02-26T01:28:50.784Z,0
2023-02-26T01:29:51.041Z,0
2023-02-26T01:30:51.203Z,0
2023-02-26T01:31:51.662Z,0
2023-02-26T01:32:51.261Z,0
2023-02-26T01:33:51.034Z,0
2023-02-26T01:35:22.740Z,0
2023-02-26T01:35:50.913Z,0
2023-02-26T01:36:50.359Z,0
2023-02-26T01:37:50.839Z,0
2023-02-26T01:38:50.590Z,0
2023-02-26T01:39:51.218Z,0
2023-02-26T01:40:50.900Z,0
2023-02-26T01:41:50.791Z,0
2023-02-26T01:42:50.769Z,0
2023-02-26T01:43:50.242Z,0
2023-02-26T01:44:50.739Z,0
2023-02-26T01:45:50.689Z,0
2023-02-26T01:46:50.399Z,0
2023-02-26T01:47:50.664Z,0
2023-02-26T01:48:50.613Z,0
2023-02-26T01:49:50.657Z,0
2023-02-26T01:50:50.578Z,0
2023-02-26T01:51:50.313Z,0
2023-02-26T01:52:50.077Z,0
2023-02-26T01:53:50.301Z,0
2023-02-26T01:54:50.520Z,0
2023-02-26T01:55:49.957Z,0
2023-02-26T01:56:50.582Z,0
2023-02-26T01:57:50.175Z,0
2023-02-26T01:58:49.630Z,0
2023-02-26T01:59:50.369Z,0
2023-02-26T02:00:50.112Z,0
2023-02-26T02:01:50.082Z,0
2023-02-26T02:02:50.956Z,0
2023-02-26T02:03:50.237Z,0
2023-02-26T02:04:50.271Z,0
2023-02-26T02:05:49.552Z,0
2023-02-26T02:06:49.964Z,0
2023-02-26T02:07:49.959Z,0
2023-02-26T02:08:50.294Z,0
2023-02-26T02:09:50.152Z,0
2023-02-26T02:10:49.897Z,0
2023-02-26T02:11:49.878Z,0
2023-02-26T02:12:50.219Z,0
2023-02-26T02:13:49.830Z,0
2023-02-26T02:14:49.589Z,0
2023-02-26T02:15:50.089Z,0
2023-02-26T02:16:49.913Z,0
2023-02-26T02:17:50.088Z,0
2023-02-26T02:18:49.963Z,0
2023-02-26T02:19:49.937Z,0
2023-02-26T02:20:49.648Z,0
2023-02-26T02:21:49.383Z,0
2023-02-26T02:22:49.877Z,0
2023-02-26T02:23:50.218Z,0
2023-02-26T02:24:49.723Z,0
2023-02-26T02:25:49.797Z,0
2023-02-26T02:26:49.690Z,0
2023-02-26T02:27:49.592Z,0
2023-02-26T02:28:49.903Z,0
2023-02-26T02:29:49.469Z,0
2023-02-26T02:30:50.103Z,0
2023-02-26T02:31:50.754Z,0
2023-02-26T02:32:49.946Z,0
2023-02-26T02:33:49.366Z,0
2023-02-26T02:34:49.368Z,0
2023-02-26T02:35:49.438Z,0
2023-02-26T02:36:49.300Z,0
2023-02-26T02:37:49.312Z,0
2023-02-26T02:38:49.709Z,0
2023-02-26T02:39:49.540Z,0
2023-02-26T02:40:49.486Z,0
2023-02-26T02:41:49.636Z,0
2023-02-26T02:42:48.947Z,0
2023-02-26T02:43:49.171Z,0
2023-02-26T02:44:49.494Z,0
2023-02-26T02:45:49.667Z,0
2023-02-26T02:46:49.074Z,0
2023-02-26T02:47:49.090Z,0
2023-02-26T02:48:49.178Z,0
2023-02-26T02:49:49.313Z,0
2023-02-26T02:50:48.746Z,0
2023-02-26T02:51:49.044Z,0
2023-02-26T02:52:48.962Z,0
2023-02-26T02:53:49.214Z,0
2023-02-26T02:54:48.993Z,0
2023-02-26T02:55:48.921Z,0
2023-02-26T02:56:49.158Z,0
2023-02-26T02:57:48.608Z,0
2023-02-26T02:58:49.089Z,0
2023-02-26T02:59:49.066Z,0
2023-02-26T03:00:49.448Z,0
2023-02-26T03:01:48.771Z,0
2023-02-26T03:02:48.687Z,0
2023-02-26T03:03:48.983Z,0
2023-02-26T03:04:48.592Z,0
2023-02-26T03:05:48.742Z,0
2023-02-26T03:06:48.917Z,0
2023-02-26T03:07:48.631Z,0
2023-02-26T03:08:48.646Z,0
2023-02-26T03:09:48.610Z,0
2023-02-26T03:10:48.844Z,0
2023-02-26T03:11:48.823Z,0
2023-02-26T03:12:48.531Z,0
2023-02-26T03:13:48.616Z,0
2023-02-26T03:14:48.514Z,0
2023-02-26T03:15:48.466Z,0
2023-02-26T03:16:49.135Z,0
2023-02-26T03:17:48.687Z,0
2023-02-26T03:18:48.666Z,0
2023-02-26T03:19:48.634Z,0
2023-02-26T03:20:48.637Z,0
2023-02-26T03:21:48.358Z,0
2023-02-26T03:22:48.335Z,0
2023-02-26T03:23:48.075Z,0
2023-02-26T03:24:48.292Z,0
2023-02-26T03:25:47.993Z,0
2023-02-26T03:26:48.259Z,0
2023-02-26T03:27:48.219Z,0
2023-02-26T03:28:48.186Z,0
2023-02-26T03:29:48.160Z,0
2023-02-26T03:30:48.688Z,0
2023-02-26T03:31:48.747Z,0
2023-02-26T03:32:48.595Z,0
2023-02-26T03:49:50.266Z,0
2023-02-26T03:50:50.190Z,0
2023-02-26T03:51:49.611Z,0
2023-02-26T03:52:49.608Z,0
2023-02-26T03:53:49.584Z,0
2023-02-26T03:54:50.059Z,0
2023-02-26T03:55:49.784Z,0
2023-02-26T03:56:49.872Z,0
2023-02-26T03:57:49.737Z,0
2023-02-26T03:58:49.974Z,0
2023-02-26T03:59:49.716Z,0
2023-02-26T04:00:50.495Z,0
2023-02-26T04:01:49.946Z,0
2023-02-26T04:02:49.890Z,0
2023-02-26T04:03:49.861Z,0
2023-02-26T04:04:50.021Z,0
2023-02-26T04:05:49.956Z,0
2023-02-26T04:06:49.299Z,0
2023-02-26T04:07:49.265Z,0
2023-02-26T04:08:49.548Z,0
2023-02-26T04:09:49.722Z,0
2023-02-26T04:10:49.445Z,0
2023-02-26T04:11:49.435Z,0
2023-02-26T04:12:49.510Z,0
2023-02-26T04:13:49.389Z,0
2023-02-26T04:14:49.365Z,0
2023-02-26T04:15:49.357Z,0
2023-02-26T04:16:49.705Z,0
2023-02-26T04:17:49.285Z,0
2023-02-26T04:18:49.311Z,0
2023-02-26T04:19:49.526Z,0
2023-02-26T04:20:49.228Z,0
2023-02-26T04:21:49.577Z,0
2023-02-26T04:22:49.220Z,0
2023-02-26T04:23:48.922Z,0
2023-02-26T04:24:49.422Z,0
2023-02-26T04:25:49.159Z,0
2023-02-26T04:26:49.099Z,0
2023-02-26T04:27:49.903Z,0
2023-02-26T04:28:49.637Z,0
2023-02-26T04:29:49.622Z,0
2023-02-26T04:30:49.455Z,0
2023-02-26T04:31:50.583Z,0
2023-02-26T04:32:49.565Z,0
2023-02-26T04:33:49.557Z,0
2023-02-26T04:34:49.527Z,0
2023-02-26T04:35:49.211Z,0
2023-02-26T04:36:49.214Z,0
2023-02-26T04:37:49.812Z,0
2023-02-26T04:38:49.441Z,0
2023-02-26T04:39:49.429Z,0
2023-02-26T04:40:49.377Z,0
2023-02-26T04:41:49.341Z,0
2023-02-26T04:42:51.876Z,0
2023-02-26T04:43:49.138Z,0
2023-02-26T04:44:49.057Z,0
2023-02-26T04:45:49.067Z,0
2023-02-26T04:46:49.073Z,0
2023-02-26T04:47:49.213Z,0
2023-02-26T04:48:49.452Z,0
2023-02-26T04:49:49.180Z,0
2023-02-26T04:50:48.965Z,0
2023-02-26T04:51:49.439Z,0
2023-02-26T04:52:49.367Z,0
2023-02-26T04:53:49.458Z,0
2023-02-26T04:54:49.328Z,0
2023-02-26T04:55:51.366Z,0
2023-02-26T04:56:48.521Z,0
2023-02-26T04:57:48.746Z,0
2023-02-26T04:58:49.009Z,0
2023-02-26T04:59:48.982Z,0
2023-02-26T05:00:49.189Z,0
2023-02-26T05:01:49.521Z,0
2023-02-26T05:02:49.156Z,0
2023-02-26T05:03:49.140Z,0
2023-02-26T05:04:49.155Z,0
2023-02-26T05:05:48.832Z,0
2023-02-26T05:06:48.796Z,0
2023-02-26T05:07:49.048Z,0
2023-02-26T05:08:49.040Z,0
2023-02-26T05:09:49.149Z,0
2023-02-26T05:10:48.765Z,0
2023-02-26T05:11:48.704Z,0
2023-02-26T05:12:48.677Z,0
2023-02-26T05:13:48.932Z,0
2023-02-26T05:14:48.394Z,0
2023-02-26T05:15:49.033Z,0
2023-02-26T05:16:48.855Z,0
2023-02-26T05:17:48.574Z,0
2023-02-26T05:18:48.582Z,0
2023-02-26T05:19:48.290Z,0
2023-02-26T05:20:48.259Z,0
2023-02-26T05:21:48.502Z,0
2023-02-26T05:22:48.489Z,0
2023-02-26T05:23:48.455Z,0
2023-02-26T05:24:48.684Z,0
2023-02-26T05:25:48.755Z,0
2023-02-26T05:26:48.145Z,0
2023-02-26T05:27:48.635Z,0
2023-02-26T05:28:48.621Z,0
2023-02-26T05:29:48.586Z,0
2023-02-26T05:30:48.531Z,0
2023-02-26T05:31:49.191Z,0
2023-02-26T05:32:48.004Z,0
2023-02-26T05:33:48.252Z,0
2023-02-26T05:34:48.216Z,0
2023-02-26T05:35:48.457Z,0
2023-02-26T05:36:47.931Z,0
2023-02-26T05:37:48.404Z,0
2023-02-26T05:38:47.884Z,4
2023-02-26T05:39:48.115Z,0
2023-02-26T05:40:48.094Z,4
2023-02-26T05:41:48.422Z,0
2023-02-26T05:42:48.047Z,4
2023-02-26T05:43:48.022Z,4
2023-02-26T05:44:48.264Z,4
2023-02-26T05:45:48.224Z,8
2023-02-26T05:46:47.946Z,8
2023-02-26T05:47:48.057Z,12
2023-02-26T05:48:50.589Z,8
2023-02-26T05:49:47.636Z,16
2023-02-26T05:50:47.624Z,12
2023-02-26T05:51:47.626Z,20
2023-02-26T05:52:48.075Z,20
2023-02-26T05:53:47.962Z,24
2023-02-26T05:54:48.052Z,28
2023-02-26T05:55:48.012Z,32
2023-02-26T05:56:47.999Z,36
2023-02-26T05:57:48.075Z,44
2023-02-26T05:58:47.752Z,52
2023-02-26T05:59:47.854Z,60
2023-02-26T06:00:47.915Z,68
2023-02-26T06:01:47.777Z,84
2023-02-26T06:02:47.819Z,88
2023-02-26T06:03:47.882Z,100
2023-02-26T06:04:47.827Z,104
2023-02-26T06:05:47.571Z,116
2023-02-26T06:06:47.537Z,120
2023-02-26T06:07:49.055Z,128
2023-02-26T06:08:47.306Z,136
2023-02-26T06:09:47.501Z,144
2023-02-26T06:10:47.454Z,156
2023-02-26T06:11:47.502Z,180
2023-02-26T06:12:47.423Z,212
2023-02-26T06:13:47.757Z,228
2023-02-26T06:14:47.631Z,260
2023-02-26T06:15:47.107Z,284
2023-02-26T06:16:47.844Z,312
2023-02-26T06:17:48.228Z,320
2023-02-26T06:18:47.302Z,320
2023-02-26T06:19:47.242Z,332
2023-02-26T06:20:46.972Z,368
2023-02-26T06:21:47.214Z,360
2023-02-26T06:22:47.189Z,360
2023-02-26T06:23:47.175Z,356
2023-02-26T06:24:46.915Z,360
2023-02-26T06:25:47.137Z,356
2023-02-26T06:26:47.345Z,364
2023-02-26T06:27:47.376Z,368
2023-02-26T06:28:47.068Z,396
2023-02-26T06:29:47.420Z,368
2023-02-26T06:30:47.559Z,384
2023-02-26T06:31:47.898Z,372
2023-02-26T06:32:47.048Z,348
2023-02-26T06:33:46.988Z,364
2023-02-26T06:34:46.920Z,384
2023-02-26T06:35:47.168Z,396
2023-02-26T06:36:46.897Z,404
2023-02-26T06:37:47.103Z,436
2023-02-26T06:38:47.335Z,448
2023-02-26T06:39:46.780Z,468
2023-02-26T06:40:46.779Z,504
2023-02-26T06:41:46.528Z,508
2023-02-26T06:42:47.245Z,536
2023-02-26T06:43:46.965Z,592
2023-02-26T06:44:46.943Z,580
2023-02-26T06:45:47.587Z,604
2023-02-26T06:46:47.137Z,640
2023-02-26T06:47:46.890Z,668
2023-02-26T06:48:46.844Z,792
2023-02-26T06:49:46.844Z,848
2023-02-26T06:50:46.572Z,948
2023-02-26T06:51:47.060Z,844
2023-02-26T06:52:46.792Z,796
2023-02-26T06:53:46.514Z,844
2023-02-26T06:54:46.994Z,904
2023-02-26T06:55:46.965Z,996
2023-02-26T06:56:46.941Z,1076
2023-02-26T06:57:46.764Z,1148
2023-02-26T06:58:46.766Z,1260
2023-02-26T06:59:47.129Z,1332
2023-02-26T07:00:47.405Z,1388
2023-02-26T07:01:47.447Z,1344
2023-02-26T07:02:47.314Z,1440
2023-02-26T07:03:46.652Z,1488
2023-02-26T07:04:46.878Z,1592
2023-02-26T07:05:46.594Z,1604
2023-02-26T07:06:48.192Z,1504
2023-02-26T07:07:47.054Z,1712
2023-02-26T07:08:46.916Z,1976
2023-02-26T07:09:49.228Z,2080
2023-02-26T07:10:46.995Z,2184
2023-02-26T07:11:47.004Z,2164
2023-02-26T07:12:47.007Z,2168
2023-02-26T07:13:46.447Z,2208
2023-02-26T07:14:46.681Z,2152
2023-02-26T07:15:48.644Z,2160
2023-02-26T07:16:46.538Z,1996
2023-02-26T07:17:46.978Z,1732
2023-02-26T07:18:46.631Z,1668
2023-02-26T07:19:46.839Z,1756
2023-02-26T07:20:46.582Z,1788
2023-02-26T07:21:46.864Z,1924
2023-02-26T07:22:46.267Z,2152
2023-02-26T07:23:46.744Z,2176
2023-02-26T07:24:46.716Z,2148
2023-02-26T07:25:46.172Z,2320
2023-02-26T07:26:46.666Z,2448
2023-02-26T07:27:48.144Z,2440
2023-02-26T07:28:46.133Z,2624
2023-02-26T07:29:46.098Z,2700
2023-02-26T07:30:46.934Z,2920
2023-02-26T07:31:46.785Z,3176
2023-02-26T07:32:46.291Z,3152
2023-02-26T07:33:46.638Z,3200
2023-02-26T07:34:46.507Z,3028
2023-02-26T07:35:46.223Z,2700
2023-02-26T07:36:46.476Z,2408
2023-02-26T07:37:46.427Z,2488
2023-02-26T07:38:47.135Z,2740
2023-02-26T07:39:46.160Z,3024
2023-02-26T07:40:46.143Z,3052
2023-02-26T07:41:46.103Z,3244
2023-02-26T07:42:46.352Z,3376
2023-02-26T07:43:45.793Z,3416
2023-02-26T07:44:46.293Z,3384
2023-02-26T07:45:46.314Z,3300
2023-02-26T07:46:46.070Z,3360
2023-02-26T07:47:46.217Z,3576
2023-02-26T07:48:46.200Z,3812
2023-02-26T07:49:46.298Z,3968
2023-02-26T07:50:45.908Z,4196
2023-02-26T07:51:45.876Z,4184
2023-02-26T07:52:45.613Z,3912
2023-02-26T07:53:46.109Z,3740
2023-02-26T07:54:46.093Z,3544
2023-02-26T07:55:46.073Z,3748
2023-02-26T07:56:45.770Z,3424
2023-02-26T07:57:46.014Z,2856
2023-02-26T07:58:45.770Z,2528
2023-02-26T07:59:45.980Z,2532
2023-02-26T08:00:45.979Z,2480
2023-02-26T08:01:45.896Z,2556
2023-02-26T08:02:45.685Z,2464
2023-02-26T08:03:45.917Z,2624
2023-02-26T08:04:45.626Z,2784
2023-02-26T08:05:45.948Z,2468
2023-02-26T08:06:45.855Z,2744
2023-02-26T08:07:45.869Z,3132
2023-02-26T08:08:45.303Z,3492
2023-02-26T08:09:45.764Z,3720
2023-02-26T08:10:48.835Z,3344
2023-02-26T08:11:45.500Z,3236
2023-02-26T08:12:45.212Z,3164
2023-02-26T08:13:44.925Z,3212
2023-02-26T08:14:45.411Z,3108
2023-02-26T08:15:45.435Z,2596
2023-02-26T08:16:45.715Z,2432
2023-02-26T08:17:45.621Z,2752
2023-02-26T08:18:45.590Z,3236
2023-02-26T08:19:45.333Z,3560
2023-02-26T08:20:45.329Z,3564
2023-02-26T08:21:45.620Z,3456
2023-02-26T08:22:45.251Z,3720
2023-02-26T08:23:44.988Z,3928
2023-02-26T08:24:45.206Z,4492
2023-02-26T08:25:45.191Z,4972
2023-02-26T08:26:45.416Z,5368
2023-02-26T08:27:45.195Z,5872
2023-02-26T08:28:45.404Z,5792
2023-02-26T08:29:45.403Z,5444
2023-02-26T08:30:45.508Z,5408
2023-02-26T08:31:45.918Z,5176
2023-02-26T08:32:45.079Z,5264
2023-02-26T08:33:45.027Z,5176
2023-02-26T08:34:45.337Z,4872
2023-02-26T08:35:45.318Z,4500
2023-02-26T08:36:45.321Z,5256
2023-02-26T08:37:45.394Z,5264
2023-02-26T08:38:44.748Z,4976
2023-02-26T08:39:44.716Z,4068
2023-02-26T08:40:45.209Z,4040
2023-02-26T08:41:44.704Z,4484
2023-02-26T08:42:45.157Z,5004
2023-02-26T08:43:44.890Z,4688
2023-02-26T08:44:45.124Z,4536
2023-02-26T08:45:45.111Z,4480
2023-02-26T08:46:45.161Z,4704
2023-02-26T08:48:01.871Z,3888
2023-02-26T08:48:44.783Z,3628
2023-02-26T08:49:44.510Z,3960
2023-02-26T08:50:45.019Z,4692
2023-02-26T08:51:44.729Z,5000
2023-02-26T08:52:44.710Z,5288
2023-02-26T08:53:45.114Z,5540
2023-02-26T08:54:44.706Z,5660
2023-02-26T08:55:44.683Z,5460
2023-02-26T08:56:44.910Z,5224
2023-02-26T08:57:44.853Z,5376
2023-02-26T08:58:44.607Z,5708
2023-02-26T08:59:44.560Z,5668
2023-02-26T09:00:44.039Z,5472
2023-02-26T09:01:44.983Z,5220
2023-02-26T09:02:45.110Z,5252
2023-02-26T09:03:44.815Z,5632
2023-02-26T09:04:44.593Z,5512
2023-02-26T09:05:43.942Z,5176
2023-02-26T09:06:44.438Z,5080
2023-02-26T09:07:44.161Z,4976
2023-02-26T09:08:44.129Z,4900
2023-02-26T09:09:44.779Z,4756
2023-02-26T09:10:45.825Z,4456
2023-02-26T09:11:44.145Z,4412
2023-02-26T09:12:44.574Z,4852
2023-02-26T09:13:44.536Z,5636
2023-02-26T09:14:44.538Z,5316
2023-02-26T09:15:44.239Z,4840
2023-02-26T09:16:44.719Z,4232
2023-02-26T09:17:44.191Z,4704
2023-02-26T09:18:44.189Z,4768
2023-02-26T09:19:44.413Z,4900
2023-02-26T09:20:43.920Z,5096
2023-02-26T09:21:44.112Z,5340
2023-02-26T09:22:44.374Z,6372
2023-02-26T09:23:44.070Z,6472
2023-02-26T09:24:44.121Z,5924
2023-02-26T09:25:44.429Z,6228
2023-02-26T09:26:43.771Z,6268
2023-02-26T09:27:44.002Z,6928
2023-02-26T09:28:44.338Z,6604
2023-02-26T09:29:44.194Z,6564
2023-02-26T09:30:44.260Z,6392
2023-02-26T09:31:44.987Z,6228
2023-02-26T09:32:44.082Z,6760
2023-02-26T09:33:43.872Z,7192
2023-02-26T09:34:43.612Z,7696
2023-02-26T09:35:43.829Z,8224
2023-02-26T09:36:43.834Z,8076
2023-02-26T09:37:43.806Z,7396
2023-02-26T09:38:44.015Z,7232
2023-02-26T09:39:43.770Z,6888
2023-02-26T09:40:43.742Z,7028
2023-02-26T09:41:44.057Z,7540
2023-02-26T09:42:43.686Z,6844
2023-02-26T09:43:43.661Z,6968
2023-02-26T09:44:43.652Z,6400
2023-02-26T09:45:46.350Z,6448
2023-02-26T09:46:43.344Z,6548
2023-02-26T09:47:43.596Z,6256
2023-02-26T09:48:43.306Z,5536
2023-02-26T09:49:43.805Z,5380
2023-02-26T09:50:43.332Z,5612
2023-02-26T09:51:43.251Z,6368
2023-02-26T09:52:43.750Z,5652
2023-02-26T09:53:43.799Z,5276
2023-02-26T09:54:43.518Z,6324
2023-02-26T09:55:43.258Z,5988
2023-02-26T09:56:43.674Z,5336
2023-02-26T09:57:43.741Z,4740
2023-02-26T09:58:43.628Z,4852
2023-02-26T09:59:43.610Z,5488
2023-02-26T10:00:43.596Z,6048
2023-02-26T10:01:43.752Z,7044
2023-02-26T10:02:43.277Z,7540
2023-02-26T10:03:43.470Z,8036
2023-02-26T10:04:43.498Z,7524
2023-02-26T10:05:43.250Z,7928
2023-02-26T10:06:43.459Z,8880
2023-02-26T10:07:43.209Z,9072
2023-02-26T10:08:43.420Z,8988
2023-02-26T10:09:43.158Z,9184
2023-02-26T10:10:42.884Z,9100
2023-02-26T10:11:43.396Z,9056
2023-02-26T10:12:43.129Z,8292
2023-02-26T10:14:02.166Z,7608
2023-02-26T10:14:43.079Z,7960
2023-02-26T10:15:43.279Z,7580
2023-02-26T10:16:43.246Z,7664
2023-02-26T10:17:43.059Z,7408
2023-02-26T10:18:43.001Z,6656
2023-02-26T10:19:43.211Z,6456
2023-02-26T10:20:43.480Z,6680
2023-02-26T10:21:42.921Z,6976
2023-02-26T10:22:42.809Z,7344
2023-02-26T10:23:46.066Z,7440
2023-02-26T10:24:43.115Z,7512
2023-02-26T10:25:43.109Z,7664
2023-02-26T10:26:42.558Z,8148
2023-02-26T10:27:42.784Z,8716
2023-02-26T10:28:43.075Z,9096
2023-02-26T10:29:43.116Z,9296
2023-02-26T10:30:43.023Z,8712
2023-02-26T10:31:42.977Z,9740
2023-02-26T10:32:43.572Z,9900
2023-02-26T10:33:42.152Z,10404
2023-02-26T10:34:42.659Z,10232
2023-02-26T10:35:42.379Z,9408
2023-02-26T10:36:42.597Z,9552
2023-02-26T10:37:42.601Z,10004
2023-02-26T10:38:42.839Z,10280
2023-02-26T10:39:42.557Z,10804
2023-02-26T10:40:42.790Z,10628
2023-02-26T10:41:41.997Z,10456
2023-02-26T10:42:42.751Z,10296
2023-02-26T10:43:42.802Z,9620
2023-02-26T10:44:42.447Z,9668
2023-02-26T10:45:43.076Z,9728
2023-02-26T10:46:42.145Z,9808
2023-02-26T10:47:44.498Z,9164
2023-02-26T10:48:42.364Z,9072
2023-02-26T10:49:42.375Z,8756
2023-02-26T10:50:42.350Z,8976
2023-02-26T10:51:42.348Z,10000
2023-02-26T10:52:42.439Z,9212
2023-02-26T10:53:44.967Z,8076
2023-02-26T10:54:42.269Z,8776
2023-02-26T10:55:42.264Z,8440
2023-02-26T10:56:41.966Z,7608
2023-02-26T10:57:42.217Z,6624
2023-02-26T10:58:42.188Z,6604
2023-02-26T10:59:42.431Z,6404
2023-02-26T11:00:42.395Z,6944
2023-02-26T11:01:42.721Z,7112
2023-02-26T11:02:42.192Z,6220
2023-02-26T11:03:42.340Z,5124
2023-02-26T11:04:42.318Z,4556
2023-02-26T11:05:42.041Z,4620
2023-02-26T11:06:42.277Z,4304
2023-02-26T11:07:42.266Z,4516
2023-02-26T11:08:42.236Z,5240
2023-02-26T11:09:41.974Z,6128
2023-02-26T11:10:42.204Z,6488
2023-02-26T11:11:41.654Z,6516
2023-02-26T11:12:42.187Z,6200
2023-02-26T11:13:41.879Z,7112
2023-02-26T11:14:42.120Z,7076
2023-02-26T11:15:42.147Z,6784
2023-02-26T11:16:41.827Z,7176
2023-02-26T11:17:42.153Z,7620
2023-02-26T11:18:41.861Z,7892
2023-02-26T11:19:41.752Z,8316
2023-02-26T11:20:42.010Z,7876
2023-02-26T11:21:42.007Z,7536
2023-02-26T11:22:41.440Z,7556
2023-02-26T11:23:41.677Z,7160
2023-02-26T11:24:42.071Z,6904
2023-02-26T11:25:43.377Z,6596
2023-02-26T11:26:42.048Z,6768
2023-02-26T11:27:41.760Z,6872
2023-02-26T11:28:41.737Z,6352
2023-02-26T11:29:41.964Z,5900
2023-02-26T11:30:41.575Z,5608
2023-02-26T11:31:44.619Z,5712
2023-02-26T11:32:42.048Z,5972
2023-02-26T11:33:42.030Z,5968
2023-02-26T11:34:41.916Z,6552
2023-02-26T11:35:41.854Z,7032
2023-02-26T11:36:41.564Z,6500
2023-02-26T11:37:41.565Z,5340
2023-02-26T11:38:41.580Z,5436
2023-02-26T11:39:41.300Z,6344
2023-02-26T11:40:41.517Z,6996
2023-02-26T11:41:41.472Z,6044
2023-02-26T11:42:41.184Z,6632
2023-02-26T11:43:43.360Z,6148
2023-02-26T11:44:41.436Z,5908
2023-02-26T11:45:41.685Z,5420
2023-02-26T11:46:41.434Z,6168
2023-02-26T11:47:41.106Z,6496
2023-02-26T11:48:41.358Z,7208
2023-02-26T11:49:41.694Z,6332
2023-02-26T11:50:43.139Z,5412
2023-02-26T11:51:41.527Z,5540
2023-02-26T11:52:42.554Z,5528
2023-02-26T11:53:42.534Z,6144
2023-02-26T11:54:42.257Z,6456
2023-02-26T11:55:42.206Z,6816
2023-02-26T11:56:42.041Z,5660
2023-02-26T11:57:42.178Z,5488
2023-02-26T11:58:42.212Z,5160
2023-02-26T11:59:42.395Z,5028
2023-02-26T12:00:42.106Z,4480
2023-02-26T12:01:41.829Z,4404
2023-02-26T12:02:42.750Z,4608
2023-02-26T12:03:41.814Z,4820
2023-02-26T12:04:41.780Z,5456
2023-02-26T12:05:42.421Z,6176
2023-02-26T12:06:41.731Z,5896
2023-02-26T12:07:41.730Z,5696
2023-02-26T12:08:42.230Z,5408
2023-02-26T12:09:41.958Z,6052
2023-02-26T12:10:41.905Z,6552
2023-02-26T12:11:41.901Z,6620
2023-02-26T12:12:42.121Z,6244
2023-02-26T12:13:41.849Z,5724
2023-02-26T12:14:41.870Z,5884
2023-02-26T12:15:42.183Z,5136
2023-02-26T12:16:42.185Z,4560
2023-02-26T12:17:42.093Z,4808
2023-02-26T12:18:41.523Z,4796
2023-02-26T12:19:41.203Z,4324
2023-02-26T12:20:41.966Z,4728
2023-02-26T12:21:42.076Z,4560
2023-02-26T12:22:41.429Z,5004
2023-02-26T12:23:41.692Z,5128
2023-02-26T12:24:41.382Z,5004
2023-02-26T12:25:41.421Z,5360
2023-02-26T12:26:41.885Z,4824
2023-02-26T12:27:41.829Z,4756
2023-02-26T12:28:41.606Z,5164
2023-02-26T12:29:41.546Z,4824
2023-02-26T12:30:41.430Z,5696
2023-02-26T12:31:42.182Z,5668
2023-02-26T12:32:41.467Z,4768
2023-02-26T12:33:41.427Z,4536
2023-02-26T12:34:41.452Z,4632
2023-02-26T12:35:41.694Z,5272
2023-02-26T12:36:55.684Z,5268
2023-02-26T12:37:41.415Z,4952
2023-02-26T12:38:41.372Z,4932
2023-02-26T12:39:41.071Z,4608
2023-02-26T12:40:41.297Z,4196
2023-02-26T12:41:41.520Z,4284
2023-02-26T12:42:41.020Z,5140
2023-02-26T12:43:42.691Z,5632
2023-02-26T12:44:41.488Z,6344
2023-02-26T12:45:41.469Z,7272
2023-02-26T12:46:41.522Z,7040
2023-02-26T12:47:41.214Z,6176
2023-02-26T12:48:41.506Z,6180
2023-02-26T12:49:41.137Z,5724
2023-02-26T12:50:40.856Z,5304
2023-02-26T12:51:40.821Z,4804
2023-02-26T12:52:41.389Z,4744
2023-02-26T12:53:41.377Z,4376
2023-02-26T12:54:43.711Z,4300
2023-02-26T12:55:41.023Z,4476
2023-02-26T12:56:40.979Z,4588
2023-02-26T12:57:41.216Z,5384
2023-02-26T12:58:41.214Z,5032
2023-02-26T12:59:40.932Z,5524
2023-02-26T13:00:41.008Z,6548
2023-02-26T13:01:45.118Z,6312
2023-02-26T13:02:40.864Z,5816
2023-02-26T13:03:40.998Z,5776
2023-02-26T13:04:40.843Z,6556
2023-02-26T13:05:40.555Z,6288
2023-02-26T13:06:40.792Z,6296
2023-02-26T13:07:40.854Z,5744
2023-02-26T13:08:41.175Z,5852
2023-02-26T13:09:41.029Z,5656
2023-02-26T13:10:40.949Z,5724
2023-02-26T13:11:40.925Z,5300
2023-02-26T13:12:40.414Z,5032
2023-02-26T13:13:40.916Z,4472
2023-02-26T13:14:40.667Z,4616
2023-02-26T13:15:40.614Z,5428
2023-02-26T13:16:40.330Z,5564
2023-02-26T13:17:40.072Z,5540
2023-02-26T13:18:40.133Z,5252
2023-02-26T13:19:40.268Z,5284
2023-02-26T13:20:40.509Z,5220
2023-02-26T13:21:40.474Z,5084
2023-02-26T13:22:40.459Z,4912
2023-02-26T13:23:40.480Z,4528
2023-02-26T13:24:40.826Z,4872
2023-02-26T13:25:40.669Z,4892
2023-02-26T13:26:40.465Z,4924
2023-02-26T13:27:40.143Z,4696
2023-02-26T13:28:40.639Z,4572
2023-02-26T13:29:39.841Z,4436
2023-02-26T13:30:40.406Z,4276
2023-02-26T13:31:41.296Z,4888
2023-02-26T13:32:41.131Z,4936
2023-02-26T13:33:39.982Z,4476
2023-02-26T13:34:40.486Z,4116
2023-02-26T13:35:41.069Z,4076
2023-02-26T13:36:42.348Z,4392
2023-02-26T13:37:40.418Z,4468
2023-02-26T13:38:40.142Z,4608
2023-02-26T13:39:40.114Z,4584
2023-02-26T13:40:40.226Z,4812
2023-02-26T13:41:43.140Z,4820
2023-02-26T13:42:40.064Z,4476
2023-02-26T13:43:40.277Z,4364
2023-02-26T13:44:40.057Z,4240
2023-02-26T13:45:40.532Z,4132
2023-02-26T13:46:39.954Z,4032
2023-02-26T13:47:40.300Z,4000
2023-02-26T13:48:40.196Z,3508
2023-02-26T13:49:40.154Z,3700
2023-02-26T13:50:39.710Z,4472
2023-02-26T13:51:39.921Z,4488
2023-02-26T13:52:39.578Z,4200
2023-02-26T13:53:39.564Z,4128
2023-02-26T13:54:40.094Z,3812
2023-02-26T13:55:40.022Z,4056
2023-02-26T13:56:39.892Z,4284
2023-02-26T13:57:40.117Z,4740
2023-02-26T13:58:39.744Z,5956
2023-02-26T13:59:40.037Z,6372
2023-02-26T14:00:39.689Z,6552
2023-02-26T14:01:39.804Z,6628
2023-02-26T14:02:39.878Z,7284
2023-02-26T14:03:39.974Z,7556
2023-02-26T14:04:40.254Z,7892
2023-02-26T14:05:39.595Z,7980
2023-02-26T14:06:39.561Z,7520
2023-02-26T14:07:39.545Z,7440
2023-02-26T14:08:39.799Z,7204
2023-02-26T14:09:39.809Z,6492
2023-02-26T14:10:39.496Z,6320